createdAt,value
2022-10-11T00:00:38.449Z,13.29
2022-10-11T00:03:06.567Z,13.90
2022-10-11T00:05:34.459Z,13.70
2022-10-11T00:08:01.895Z,14.06
2022-10-11T00:10:29.351Z,13.87
2022-10-11T00:12:56.758Z,13.87
2022-10-11T00:15:24.180Z,13.86
2022-10-11T00:17:52.918Z,13.78
2022-10-11T00:20:20.546Z,13.87
2022-10-11T00:22:49.231Z,13.99
2022-10-11T00:25:17.558Z,13.76
2022-10-11T00:27:45.505Z,14.08
2022-10-11T00:30:13.921Z,13.64
2022-10-11T00:32:41.431Z,14.02
2022-10-11T00:35:10.671Z,13.83
2022-10-11T00:37:39.725Z,13.56
2022-10-11T00:40:11.376Z,13.69
2022-10-11T00:42:38.827Z,13.30
2022-10-11T00:45:43.522Z,13.09
2022-10-11T00:48:20.413Z,13.61
2022-10-11T00:50:49.374Z,13.78
2022-10-11T00:53:16.885Z,13.75
2022-10-11T00:55:49.990Z,13.84
2022-10-11T00:58:18.815Z,14.00
2022-10-11T01:00:46.391Z,14.12
2022-10-11T01:03:13.777Z,13.82
2022-10-11T01:05:41.245Z,13.94
2022-10-11T01:08:09.984Z,13.89
2022-10-11T01:10:37.673Z,13.93
2022-10-11T01:13:17.376Z,13.99
2022-10-11T01:15:51.345Z,14.03
2022-10-11T01:18:25.747Z,14.09
2022-10-11T01:21:02.610Z,14.20
2022-10-11T01:24:07.437Z,14.08
2022-10-11T01:27:01.891Z,13.70
2022-10-11T01:29:45.347Z,14.01
2022-10-11T01:32:18.107Z,14.13
2022-10-11T01:34:56.632Z,13.72
2022-10-11T01:37:30.289Z,13.79
2022-10-11T01:40:03.448Z,13.97
2022-10-11T01:42:31.360Z,14.00
2022-10-11T01:45:00.297Z,13.89
2022-10-11T01:47:29.052Z,13.98
2022-10-11T01:49:57.928Z,13.90
2022-10-11T01:52:27.714Z,13.88
2022-10-11T01:55:14.024Z,13.71
2022-10-11T01:58:00.755Z,13.96
2022-10-11T02:00:32.562Z,13.83
2022-10-11T02:03:10.077Z,13.87
2022-10-11T02:05:44.104Z,13.79
2022-10-11T02:08:19.883Z,13.54
2022-10-11T02:10:52.901Z,13.65
2022-10-11T02:13:26.809Z,13.54
2022-10-11T02:15:57.088Z,13.32
2022-10-11T02:18:32.110Z,13.43
2022-10-11T02:21:01.726Z,13.38
2022-10-11T02:23:33.663Z,12.98
2022-10-11T02:26:05.509Z,13.30
2022-10-11T02:28:37.397Z,13.20
2022-10-11T02:31:08.124Z,13.27
2022-10-11T02:33:42.742Z,13.25
2022-10-11T02:36:16.608Z,13.31
2022-10-11T02:38:49.616Z,13.02
2022-10-11T02:41:24.177Z,13.42
2022-10-11T02:43:59.375Z,13.32
2022-10-11T02:46:30.400Z,12.91
2022-10-11T02:49:00.590Z,13.22
2022-10-11T02:51:31.531Z,13.27
2022-10-11T02:53:59.061Z,13.20
2022-10-11T02:56:26.566Z,13.19
2022-10-11T02:58:53.974Z,13.32
2022-10-11T03:01:21.815Z,13.12
2022-10-11T03:03:49.294Z,13.21
2022-10-11T03:06:18.043Z,13.03
2022-10-11T03:08:45.500Z,13.10
2022-10-11T03:11:12.889Z,12.94
2022-10-11T03:13:40.262Z,13.09
2022-10-11T03:16:07.728Z,13.10
2022-10-11T03:18:35.253Z,13.06
2022-10-11T03:21:02.615Z,12.99
2022-10-11T03:23:31.364Z,13.02
2022-10-11T03:25:58.794Z,13.02
2022-10-11T03:28:26.198Z,13.02
2022-10-11T03:30:53.740Z,13.07
2022-10-11T03:33:21.156Z,13.02
2022-10-11T03:35:49.954Z,12.97
2022-10-11T03:38:19.741Z,12.96
2022-10-11T03:40:48.487Z,12.98
2022-10-11T03:43:16.143Z,13.12
2022-10-11T03:45:43.757Z,13.20
2022-10-11T03:48:11.578Z,13.23
2022-10-11T03:50:39.519Z,13.29
2022-10-11T03:53:08.496Z,13.14
2022-10-11T03:55:35.959Z,13.09
2022-10-11T03:58:04.671Z,13.18
2022-10-11T04:00:32.068Z,13.22
2022-10-11T04:03:00.245Z,13.25
2022-10-11T04:05:27.704Z,13.18
2022-10-11T04:07:55.078Z,13.13
2022-10-11T04:10:29.087Z,13.13
2022-10-11T04:12:56.455Z,13.12
2022-10-11T04:15:25.336Z,13.15
2022-10-11T04:17:52.696Z,12.97
2022-10-11T04:20:20.212Z,12.88
2022-10-11T04:22:47.624Z,12.83
2022-10-11T04:25:15.201Z,12.85
2022-10-11T04:27:42.575Z,12.88
2022-10-11T04:30:11.823Z,12.97
2022-10-11T04:32:40.496Z,12.87
2022-10-11T04:35:08.391Z,12.79
2022-10-11T04:37:35.840Z,12.89
2022-10-11T04:40:03.592Z,12.96
2022-10-11T04:42:30.981Z,12.74
2022-10-11T04:44:58.650Z,12.85
2022-10-11T04:47:26.087Z,12.87
2022-10-11T04:49:54.787Z,12.79
2022-10-11T04:52:25.560Z,12.90
2022-10-11T04:54:53.388Z,12.93
2022-10-11T04:57:20.824Z,12.84
2022-10-11T04:59:50.308Z,12.80
2022-10-11T05:02:18.015Z,12.67
2022-10-11T05:04:45.499Z,12.64
2022-10-11T05:07:14.621Z,12.82
2022-10-11T05:09:42.031Z,12.96
2022-10-11T05:12:09.556Z,12.84
2022-10-11T05:14:37.196Z,12.91
2022-10-11T05:17:05.037Z,12.91
2022-10-11T05:19:32.427Z,12.86
2022-10-11T05:21:59.819Z,12.88
2022-10-11T05:24:28.506Z,12.71
2022-10-11T05:26:58.699Z,12.83
2022-10-11T05:29:29.997Z,12.82
2022-10-11T05:31:57.644Z,12.91
2022-10-11T05:34:25.088Z,12.84
2022-10-11T05:36:52.457Z,12.83
2022-10-11T05:39:19.799Z,12.93
2022-10-11T05:41:48.558Z,13.05
2022-10-11T05:44:15.969Z,12.90
2022-10-11T05:46:43.430Z,12.96
2022-10-11T05:49:10.829Z,12.93
2022-10-11T05:51:38.204Z,12.93
2022-10-11T05:54:05.594Z,13.02
2022-10-11T05:56:32.973Z,12.93
2022-10-11T05:59:02.660Z,12.94
2022-10-11T06:01:30.267Z,12.93
2022-10-11T06:03:57.734Z,12.88
2022-10-11T06:06:25.128Z,12.87
2022-10-11T06:08:52.663Z,13.06
2022-10-11T06:11:22.478Z,12.90
2022-10-11T06:14:02.624Z,12.92
2022-10-11T06:16:30.163Z,13.14
2022-10-11T06:18:58.882Z,13.07
2022-10-11T06:21:26.865Z,13.12
2022-10-11T06:24:00.812Z,13.14
2022-10-11T06:26:29.105Z,13.25
2022-10-11T06:28:56.635Z,12.99
2022-10-11T06:31:26.168Z,13.09
2022-10-11T06:33:53.552Z,13.21
2022-10-11T06:36:20.931Z,13.30
2022-10-11T06:38:48.380Z,13.11
2022-10-11T06:41:19.026Z,13.21
2022-10-11T06:43:49.426Z,13.12
2022-10-11T06:46:17.643Z,12.66
2022-10-11T06:48:48.036Z,13.06
2022-10-11T06:51:18.623Z,13.02
2022-10-11T06:53:49.884Z,12.91
2022-10-11T06:56:17.276Z,13.18
2022-10-11T06:58:44.829Z,13.03
2022-10-11T07:01:16.262Z,12.75
2022-10-11T07:03:43.679Z,12.95
2022-10-11T07:06:14.894Z,12.87
2022-10-11T07:08:42.506Z,13.28
2022-10-11T07:11:12.088Z,13.33
2022-10-11T07:13:41.404Z,13.38
2022-10-11T07:16:10.981Z,13.00
2022-10-11T07:18:38.747Z,13.00
2022-10-11T07:21:07.986Z,13.32
2022-10-11T07:23:36.695Z,13.34
2022-10-11T07:26:05.087Z,13.03
2022-10-11T07:28:32.745Z,12.54
2022-10-11T07:31:00.200Z,13.07
2022-10-11T07:33:27.587Z,13.15
2022-10-11T07:35:58.357Z,12.99
2022-10-11T07:38:25.744Z,12.50
2022-10-11T07:40:54.846Z,12.92
2022-10-11T07:43:22.258Z,13.00
2022-10-11T07:45:54.288Z,13.05
2022-10-11T07:48:21.897Z,12.76
2022-10-11T07:50:49.786Z,12.71
2022-10-11T07:53:17.247Z,13.19
2022-10-11T07:55:44.673Z,13.28
2022-10-11T07:58:14.149Z,13.36
2022-10-11T08:00:42.689Z,13.26
2022-10-11T08:03:10.444Z,13.20
2022-10-11T08:05:39.057Z,14.38
2022-10-11T08:08:06.515Z,15.54
2022-10-11T08:10:38.460Z,15.81
2022-10-11T08:13:06.153Z,16.28
2022-10-11T08:15:35.030Z,16.31
2022-10-11T08:18:02.612Z,16.25
2022-10-11T08:20:31.125Z,16.27
2022-10-11T08:22:58.563Z,16.37
2022-10-11T08:25:26.051Z,17.06
2022-10-11T08:27:53.434Z,16.75
2022-10-11T08:30:20.860Z,15.09
2022-10-11T08:32:49.553Z,15.08
2022-10-11T08:35:16.907Z,14.58
2022-10-11T08:37:44.335Z,14.38
2022-10-11T08:40:16.598Z,14.36
2022-10-11T08:42:46.482Z,14.70
2022-10-11T08:45:33.312Z,14.12
2022-10-11T08:48:14.379Z,14.63
2022-10-11T08:50:43.649Z,14.71
2022-10-11T08:53:19.667Z,14.62
2022-10-11T08:55:51.670Z,14.78
2022-10-11T08:58:22.912Z,14.07
2022-10-11T09:00:53.755Z,14.64
2022-10-11T09:03:31.808Z,14.39
2022-10-11T09:06:09.090Z,14.51
2022-10-11T09:08:49.403Z,14.24
2022-10-11T09:11:26.718Z,14.39
2022-10-11T09:14:07.275Z,14.06
2022-10-11T09:16:48.501Z,14.03
2022-10-11T09:19:36.466Z,14.58
2022-10-11T09:22:13.173Z,14.56
2022-10-11T09:24:53.295Z,15.04
2022-10-11T09:27:49.937Z,15.00
2022-10-11T09:30:16.078Z,15.17
2022-10-11T09:32:47.323Z,14.67
2022-10-11T09:35:18.380Z,15.28
2022-10-11T09:37:52.195Z,15.48
2022-10-11T09:40:33.811Z,15.33
2022-10-11T09:43:01.234Z,15.43
2022-10-11T09:45:28.647Z,14.90
2022-10-11T09:47:58.623Z,14.66
2022-10-11T09:50:30.584Z,15.14
2022-10-11T09:53:00.329Z,15.05
2022-10-11T09:55:33.846Z,15.48
2022-10-11T09:58:01.707Z,15.66
2022-10-11T10:00:33.455Z,15.42
2022-10-11T10:03:02.482Z,15.40
2022-10-11T10:05:32.473Z,15.51
2022-10-11T10:08:05.016Z,15.47
2022-10-11T10:10:38.545Z,15.72
2022-10-11T10:13:07.950Z,14.81
2022-10-11T10:15:37.656Z,15.09
2022-10-11T10:18:10.379Z,15.48
2022-10-11T10:20:39.184Z,14.74
2022-10-11T10:23:10.846Z,14.32
2022-10-11T10:25:43.593Z,14.29
2022-10-11T10:28:21.162Z,14.71
2022-10-11T10:30:54.499Z,14.87
2022-10-11T10:33:23.849Z,15.57
2022-10-11T10:35:57.505Z,15.27
2022-10-11T10:38:30.075Z,15.07
2022-10-11T10:41:00.030Z,15.34
2022-10-11T10:43:30.578Z,15.32
2022-10-11T10:46:18.314Z,14.83
2022-10-11T10:51:54.689Z,15.55
2022-10-11T10:54:36.178Z,14.97
2022-10-11T10:57:11.841Z,15.09
2022-10-11T10:59:55.089Z,15.20
2022-10-11T11:02:40.367Z,15.13
2022-10-11T11:05:18.768Z,15.52
2022-10-11T11:07:53.702Z,16.07
2022-10-11T11:10:23.800Z,15.58
2022-10-11T11:13:05.199Z,15.20
2022-10-11T11:15:38.508Z,15.40
2022-10-11T11:18:22.120Z,16.13
2022-10-11T11:21:02.473Z,16.31
2022-10-11T11:23:40.296Z,16.48
2022-10-11T11:26:13.810Z,16.00
2022-10-11T11:28:51.019Z,15.90
2022-10-11T11:31:36.452Z,16.25
2022-10-11T11:34:11.267Z,15.64
2022-10-11T11:36:44.018Z,16.34
2022-10-11T11:39:17.760Z,16.26
2022-10-11T11:41:51.825Z,15.91
2022-10-11T11:44:27.516Z,16.30
2022-10-11T11:47:01.426Z,16.61
2022-10-11T11:49:32.814Z,15.69
2022-10-11T11:52:01.153Z,15.26
2022-10-11T11:54:43.305Z,15.55
2022-10-11T11:57:24.554Z,15.69
2022-10-11T11:59:57.857Z,15.47
2022-10-11T12:02:36.582Z,15.44
2022-10-11T12:05:06.984Z,15.40
2022-10-11T12:07:49.786Z,15.71
2022-10-11T12:10:26.046Z,15.26
2022-10-11T12:13:07.080Z,15.46
2022-10-11T12:15:35.065Z,16.07
2022-10-11T12:18:15.127Z,16.03
2022-10-11T12:20:44.661Z,16.32
2022-10-11T12:23:50.561Z,16.40
2022-10-11T12:26:44.003Z,16.24
2022-10-11T12:29:43.551Z,17.10
2022-10-11T12:32:47.899Z,16.56
2022-10-11T12:35:39.965Z,17.10
2022-10-11T12:38:16.563Z,16.70
2022-10-11T12:40:47.060Z,16.92
2022-10-11T12:43:33.635Z,17.03
2022-10-11T12:46:34.094Z,17.29
2022-10-11T12:49:16.483Z,17.53
2022-10-11T12:51:56.578Z,16.86
2022-10-11T12:55:02.903Z,16.75
2022-10-11T12:58:07.801Z,16.75
2022-10-11T13:00:46.654Z,16.94
2022-10-11T13:03:32.222Z,16.45
2022-10-11T13:06:02.022Z,16.23
2022-10-11T13:08:33.403Z,15.84
2022-10-11T13:11:04.262Z,15.51
2022-10-11T13:13:35.561Z,15.59
2022-10-11T13:16:10.031Z,15.81
2022-10-11T13:18:37.503Z,15.85
2022-10-11T13:21:20.290Z,15.48
2022-10-11T13:23:50.646Z,15.77
2022-10-11T13:26:18.110Z,16.02
2022-10-11T13:28:46.122Z,16.36
2022-10-11T13:31:14.963Z,16.04
2022-10-11T13:33:45.795Z,16.29
2022-10-11T13:36:17.589Z,16.17
2022-10-11T13:38:53.813Z,16.40
2022-10-11T13:41:21.952Z,16.57
2022-10-11T13:43:50.220Z,16.46
2022-10-11T13:46:22.501Z,15.95
2022-10-11T13:49:00.476Z,16.04
2022-10-11T13:51:32.508Z,16.27
2022-10-11T13:54:03.001Z,16.34
2022-10-11T13:56:33.090Z,15.59
2022-10-11T13:59:01.585Z,15.47
2022-10-11T14:01:39.209Z,15.10
2022-10-11T14:04:10.144Z,15.03
2022-10-11T14:06:43.941Z,15.13
2022-10-11T14:09:20.962Z,15.30
2022-10-11T14:11:48.667Z,15.18
2022-10-11T14:14:41.260Z,16.08
2022-10-11T14:17:16.360Z,15.70
2022-10-11T14:19:44.528Z,16.32
2022-10-11T14:22:15.849Z,15.93
2022-10-11T14:24:43.619Z,16.61
2022-10-11T14:27:17.665Z,16.39
2022-10-11T14:30:00.314Z,16.85
2022-10-11T14:32:36.353Z,17.25
2022-10-11T14:35:04.710Z,16.83
2022-10-11T14:37:32.311Z,16.37
2022-10-11T14:39:59.772Z,16.05
2022-10-11T14:42:27.138Z,16.00
2022-10-11T14:44:54.550Z,15.53
2022-10-11T14:47:21.946Z,15.89
2022-10-11T14:49:50.958Z,15.86
2022-10-11T14:52:18.352Z,16.04
2022-10-11T14:54:45.725Z,16.02
2022-10-11T14:57:15.260Z,16.51
2022-10-11T14:59:42.685Z,15.93
2022-10-11T15:02:13.155Z,16.30
2022-10-11T15:04:40.529Z,15.72
2022-10-11T15:07:09.474Z,15.59
2022-10-11T15:09:36.843Z,15.76
2022-10-11T15:12:04.587Z,16.09
2022-10-11T15:14:31.959Z,16.54
2022-10-11T15:16:59.349Z,16.44
2022-10-11T15:19:26.781Z,16.76
2022-10-11T15:21:54.272Z,16.21
2022-10-11T15:24:22.971Z,16.84
2022-10-11T15:26:50.615Z,16.91
2022-10-11T15:29:20.301Z,17.08
2022-10-11T15:31:49.255Z,16.73
2022-10-11T15:34:17.251Z,16.90
2022-10-11T15:36:44.739Z,16.95
2022-10-11T15:39:27.362Z,16.95
2022-10-11T15:41:54.831Z,17.01
2022-10-11T15:44:22.246Z,17.07
2022-10-11T15:46:49.707Z,16.82
2022-10-11T15:49:18.164Z,16.94
2022-10-11T15:51:45.558Z,16.84
2022-10-11T15:54:12.946Z,16.88
2022-10-11T15:56:41.646Z,16.76
2022-10-11T15:59:11.195Z,16.79
2022-10-11T16:01:38.608Z,16.76
2022-10-11T16:04:06.270Z,16.60
2022-10-11T16:06:33.687Z,16.70
2022-10-11T16:09:01.100Z,16.60
2022-10-11T16:11:28.499Z,16.43
2022-10-11T16:13:57.383Z,16.38
2022-10-11T16:16:24.743Z,16.41
2022-10-11T16:18:52.161Z,16.36
2022-10-11T16:21:20.817Z,16.12
2022-10-11T16:23:48.277Z,16.23
2022-10-11T16:26:16.904Z,16.02
2022-10-11T16:28:44.567Z,16.04
2022-10-11T16:31:18.074Z,16.00
2022-10-11T16:33:48.716Z,16.06
2022-10-11T16:36:35.448Z,15.82
2022-10-11T16:39:07.100Z,15.90
2022-10-11T16:41:34.619Z,15.96
2022-10-11T16:44:02.306Z,15.88
2022-10-11T16:46:32.219Z,15.77
2022-10-11T16:48:59.926Z,15.66
2022-10-11T16:51:27.361Z,15.69
2022-10-11T16:53:54.768Z,15.64
2022-10-11T16:56:24.064Z,15.59
2022-10-11T16:58:52.223Z,15.56
2022-10-11T17:01:20.059Z,15.56
2022-10-11T17:03:49.456Z,15.49
2022-10-11T17:06:17.374Z,15.53
2022-10-11T17:08:44.794Z,15.51
2022-10-11T17:11:12.283Z,15.35
2022-10-11T17:13:39.676Z,15.44
2022-10-11T17:16:08.487Z,15.33
2022-10-11T17:18:36.888Z,15.53
2022-10-11T17:21:08.256Z,15.22
2022-10-11T17:26:10.847Z,15.05
2022-10-11T17:28:39.423Z,14.88
2022-10-11T17:31:08.976Z,14.93
2022-10-11T17:33:36.883Z,15.04
2022-10-11T17:36:14.824Z,14.99
2022-10-11T17:38:42.339Z,15.14
2022-10-11T17:41:11.006Z,15.13
2022-10-11T17:43:39.057Z,14.81
2022-10-11T17:46:08.826Z,14.91
2022-10-11T17:48:39.195Z,14.97
2022-10-11T17:51:09.836Z,14.83
2022-10-11T17:53:37.955Z,14.91
2022-10-11T17:56:06.683Z,14.87
2022-10-11T17:58:34.345Z,14.66
2022-10-11T18:01:03.340Z,14.65
2022-10-11T18:03:30.979Z,14.76
2022-10-11T18:05:58.507Z,14.73
2022-10-11T18:08:27.444Z,14.34
2022-10-11T18:10:54.801Z,14.43
2022-10-11T18:13:22.358Z,14.41
2022-10-11T18:15:53.486Z,14.63
2022-10-11T18:18:21.155Z,14.52
2022-10-11T18:20:49.619Z,14.47
2022-10-11T18:23:19.018Z,14.05
2022-10-11T18:25:49.373Z,13.98
2022-10-11T18:28:18.002Z,14.03
2022-10-11T18:30:47.417Z,13.95
2022-10-11T18:33:16.579Z,13.85
2022-10-11T18:35:44.186Z,13.84
2022-10-11T18:38:11.641Z,14.02
2022-10-11T18:40:44.728Z,13.96
2022-10-11T18:43:15.648Z,13.92
2022-10-11T18:45:43.045Z,13.84
2022-10-11T18:48:10.476Z,13.88
2022-10-11T18:50:37.942Z,13.80
2022-10-11T18:55:38.218Z,13.81
2022-10-11T18:58:05.615Z,13.71
2022-10-11T19:00:42.421Z,13.65
2022-10-11T19:03:09.906Z,13.67
2022-10-11T19:05:39.277Z,13.60
2022-10-11T19:08:06.993Z,13.60
2022-10-11T19:10:35.061Z,13.55
2022-10-11T19:13:02.543Z,13.55
2022-10-11T19:15:30.034Z,13.59
2022-10-11T19:17:58.766Z,13.56
2022-10-11T19:20:26.137Z,13.56
2022-10-11T19:22:53.587Z,13.51
2022-10-11T19:25:20.992Z,13.42
2022-10-11T19:27:48.395Z,13.41
2022-10-11T19:30:15.800Z,13.49
2022-10-11T19:32:43.381Z,13.40
2022-10-11T19:35:19.036Z,13.44
2022-10-11T19:37:47.362Z,13.39
2022-10-11T19:40:14.816Z,13.42
2022-10-11T19:42:42.235Z,13.38
2022-10-11T19:45:10.280Z,13.44
2022-10-11T19:47:37.889Z,13.43
2022-10-11T19:50:06.062Z,13.38
2022-10-11T19:52:34.886Z,13.32
2022-10-11T19:55:02.355Z,13.27
2022-10-11T19:57:30.078Z,13.33
2022-10-11T19:59:58.440Z,13.15
2022-10-11T20:02:25.834Z,13.17
2022-10-11T20:04:53.478Z,13.22
2022-10-11T20:07:20.903Z,13.04
2022-10-11T20:09:49.705Z,13.09
2022-10-11T20:12:17.080Z,12.95
2022-10-11T20:14:44.518Z,12.92
2022-10-11T20:17:12.131Z,12.97
2022-10-11T20:19:39.519Z,12.96
2022-10-11T20:22:08.804Z,12.96
2022-10-11T20:24:36.205Z,12.95
2022-10-11T20:27:06.288Z,12.83
2022-10-11T20:29:33.730Z,12.84
2022-10-11T20:32:01.199Z,12.77
2022-10-11T20:34:28.829Z,12.77
2022-10-11T20:36:56.251Z,12.79
2022-10-11T20:39:23.808Z,12.60
2022-10-11T20:41:51.465Z,12.83
2022-10-11T20:44:20.154Z,12.87
2022-10-11T20:46:47.603Z,12.86
2022-10-11T20:49:15.241Z,12.71
2022-10-11T20:51:43.744Z,12.71
2022-10-11T20:54:13.529Z,12.57
2022-10-11T20:56:41.496Z,12.54
2022-10-11T20:59:10.075Z,12.54
2022-10-11T21:01:40.967Z,12.72
2022-10-11T21:04:11.287Z,12.69
2022-10-11T21:06:38.763Z,12.56
2022-10-11T21:09:06.143Z,12.66
2022-10-11T21:11:35.479Z,12.65
2022-10-11T21:14:05.082Z,12.57
2022-10-11T21:16:32.649Z,12.66
2022-10-11T21:19:02.809Z,12.81
2022-10-11T21:21:31.367Z,12.71
2022-10-11T21:24:00.196Z,12.70
2022-10-11T21:26:29.091Z,12.56
2022-10-11T21:28:59.160Z,12.27
2022-10-11T21:31:32.923Z,12.43
2022-10-11T21:34:03.932Z,12.34
2022-10-11T21:36:31.459Z,12.37
2022-10-11T21:38:59.103Z,12.34
2022-10-11T21:41:29.073Z,12.22
2022-10-11T21:43:56.995Z,12.22
2022-10-11T21:46:41.645Z,12.21
2022-10-11T21:49:15.231Z,12.27
2022-10-11T21:51:43.930Z,12.33
2022-10-11T21:54:11.344Z,12.32
2022-10-11T21:56:39.348Z,12.39
2022-10-11T21:59:11.094Z,12.29
2022-10-11T22:01:41.929Z,12.02
2022-10-11T22:04:11.055Z,11.89
2022-10-11T22:06:41.062Z,12.01
2022-10-11T22:09:09.739Z,12.15
2022-10-11T22:11:38.674Z,12.19
2022-10-11T22:14:06.237Z,12.24
2022-10-11T22:16:34.925Z,12.02
2022-10-11T22:19:02.527Z,12.06
2022-10-11T22:21:30.153Z,11.87
2022-10-11T22:23:58.899Z,11.86
2022-10-11T22:26:29.836Z,12.06
2022-10-11T22:28:57.461Z,12.17
2022-10-11T22:31:24.952Z,12.33
2022-10-11T22:33:54.756Z,12.16
2022-10-11T22:36:24.130Z,12.20
2022-10-11T22:38:52.148Z,12.21
2022-10-11T22:41:21.165Z,12.14
2022-10-11T22:43:48.780Z,12.03
2022-10-11T22:46:16.393Z,12.03
2022-10-11T22:48:43.847Z,12.11
2022-10-11T22:51:11.249Z,12.03
2022-10-11T22:53:39.661Z,11.90
2022-10-11T22:56:08.740Z,11.87
2022-10-11T22:58:37.487Z,12.01
2022-10-11T23:01:09.449Z,11.97
2022-10-11T23:03:37.141Z,12.09
2022-10-11T23:06:05.032Z,12.03
2022-10-11T23:08:32.695Z,12.09
2022-10-11T23:11:03.493Z,12.23
2022-10-11T23:13:30.887Z,12.12
2022-10-11T23:15:59.692Z,11.86
2022-10-11T23:18:27.080Z,11.87
2022-10-11T23:20:54.470Z,11.80
2022-10-11T23:23:21.824Z,11.84
2022-10-11T23:25:49.230Z,11.94
2022-10-11T23:28:16.662Z,11.77
2022-10-11T23:30:44.099Z,11.74
2022-10-11T23:33:12.839Z,11.65
2022-10-11T23:35:40.293Z,11.43
2022-10-11T23:38:07.804Z,11.41
2022-10-11T23:40:37.068Z,11.49
2022-10-11T23:43:04.423Z,11.45
2022-10-11T23:45:31.787Z,11.55
2022-10-11T23:47:59.246Z,11.54
2022-10-11T23:50:27.974Z,11.50
2022-10-11T23:52:56.996Z,11.46
2022-10-11T23:55:24.367Z,11.29
2022-10-11T23:57:51.899Z,11.39
